DLH3W EDDF-KIAD
Flight info
| Callsign | DLH3W |
|---|---|
| Flight time | N/A |
| Altitude | 34000 |
| Route | OBOKA3M/25C OBOKA Z29 TORNU DCT VICOT DCT GALSO Q63 ERING L179 UGBET Q60 OKSAW DCT BIBPE DCT TIGWE DCT FELCA DCT FADZU DCT NICXI DCT OFSOX DCT SLANY DCT DIMUS DCT MALOT/M083F360 DCT 54N020W 54N030W 54N040W 53N050W DCT RIKAL/N0491F380 N572A TOPPS DCT KAYCC DCT KYLOH DCT BAF HYPER9 |
| Aircraft | A343/H-SDE2E3FGHIJ4J5M1RWXY/LB1D1 |
Departure
| Time | 2026-05-04 07:33 |
|---|---|
| Airport | Frankfurt Main Airport (EDDF) |
Arrival
| Time | N/A |
|---|---|
| Airport | Washington Dulles International Airport (KIAD) |
| Time | Latitude | Longitude | Altitude | Speed | Heading |
|---|---|---|---|---|---|
| 2026-05-04 06:48 | 50.04671 | 8.56046 | 374 ft | 0 kts | 340° |
| 2026-05-04 07:22 | 50.04596 | 8.56128 | 360 ft | 4 kts | 262° |
| 2026-05-04 07:22 | 50.04600 | 8.56154 | 367 ft | 0 kts | 251° |
| 2026-05-04 07:23 | 50.04591 | 8.56116 | 367 ft | 4 kts | 249° |
| 2026-05-04 07:23 | 50.04581 | 8.56076 | 366 ft | 4 kts | 249° |
| 2026-05-04 07:23 | 50.04576 | 8.56056 | 364 ft | 0 kts | 250° |
| 2026-05-04 07:26 | 50.04525 | 8.55960 | 367 ft | 9 kts | 205° |
| 2026-05-04 07:27 | 50.04459 | 8.55927 | 365 ft | 11 kts | 198° |
| 2026-05-04 07:27 | 50.04372 | 8.55919 | 365 ft | 15 kts | 166° |
| 2026-05-04 07:27 | 50.04261 | 8.55950 | 361 ft | 18 kts | 194° |
| 2026-05-04 07:27 | 50.04133 | 8.55945 | 361 ft | 19 kts | 160° |
| 2026-05-04 07:28 | 50.04087 | 8.56097 | 361 ft | 17 kts | 78° |
| 2026-05-04 07:28 | 50.04123 | 8.56264 | 364 ft | 16 kts | 69° |
| 2026-05-04 07:28 | 50.04161 | 8.56419 | 363 ft | 15 kts | 69° |
| 2026-05-04 07:28 | 50.04201 | 8.56589 | 366 ft | 19 kts | 69° |
| 2026-05-04 07:29 | 50.04250 | 8.56791 | 371 ft | 20 kts | 70° |
| 2026-05-04 07:29 | 50.04297 | 8.56992 | 369 ft | 20 kts | 69° |
| 2026-05-04 07:29 | 50.04343 | 8.57183 | 370 ft | 18 kts | 70° |
| 2026-05-04 07:29 | 50.04388 | 8.57367 | 373 ft | 18 kts | 69° |
| 2026-05-04 07:30 | 50.04431 | 8.57550 | 372 ft | 18 kts | 70° |
| 2026-05-04 07:30 | 50.04479 | 8.57749 | 371 ft | 22 kts | 70° |
| 2026-05-04 07:30 | 50.04535 | 8.57983 | 370 ft | 25 kts | 70° |
| 2026-05-04 07:30 | 50.04595 | 8.58233 | 374 ft | 23 kts | 69° |
| 2026-05-04 07:31 | 50.04645 | 8.58436 | 376 ft | 10 kts | 68° |
| 2026-05-04 07:31 | 50.04648 | 8.58532 | 376 ft | 8 kts | 110° |
| 2026-05-04 07:33 | 50.04013 | 8.56609 | 368 ft | 127 kts | 250° |
| 2026-05-04 07:33 | 50.03667 | 8.55157 | 365 ft | 159 kts | 249° |
| 2026-05-04 07:33 | 50.03280 | 8.53562 | 834 ft | 155 kts | 248° |
| 2026-05-04 07:33 | 50.02827 | 8.51978 | 1229 ft | 168 kts | 236° |
| 2026-05-04 07:34 | 50.01945 | 8.50769 | 1515 ft | 177 kts | 207° |
| 2026-05-04 07:34 | 50.00764 | 8.49953 | 1902 ft | 191 kts | 202° |
| 2026-05-04 07:34 | 49.99507 | 8.49183 | 2456 ft | 195 kts | 202° |
| 2026-05-04 07:34 | 49.98253 | 8.48410 | 3252 ft | 190 kts | 205° |
| 2026-05-04 07:35 | 49.97054 | 8.47663 | 4135 ft | 182 kts | 205° |
| 2026-05-04 07:35 | 49.95885 | 8.46992 | 4897 ft | 182 kts | 202° |
| 2026-05-04 07:35 | 49.94609 | 8.46376 | 5283 ft | 203 kts | 200° |
| 2026-05-04 07:35 | 49.93204 | 8.45728 | 5803 ft | 215 kts | 199° |
| 2026-05-04 07:36 | 49.91818 | 8.44831 | 6483 ft | 219 kts | 213° |
| 2026-05-04 07:36 | 49.90728 | 8.43136 | 7138 ft | 227 kts | 232° |
| 2026-05-04 07:38 | 49.89940 | 8.24584 | 10767 ft | 322 kts | 298° |
| 2026-05-04 07:38 | 49.91284 | 8.21683 | 11051 ft | 340 kts | 302° |
| 2026-05-04 07:38 | 49.92745 | 8.18689 | 11323 ft | 355 kts | 302° |
| 2026-05-04 07:38 | 49.94374 | 8.15678 | 11594 ft | 373 kts | 311° |
| 2026-05-04 07:39 | 49.96330 | 8.12926 | 11954 ft | 385 kts | 316° |
| 2026-05-04 07:39 | 49.98386 | 8.10212 | 12536 ft | 390 kts | 316° |